Home > Products > Valid Products > TAF

000
FTUS46 KSEW 050525
TAFBLI
TAF
KBLI 050525Z 0506/0606 02004KT P6SM FEW250
     FM051500 02010KT P6SM FEW250
     FM052000 33008KT P6SM FEW250
     FM060000 28006KT P6SM FEW250
     FM060300 20004KT P6SM FEW250=



000
FTUS46 KSEW 050525
TAFBFI
TAF
KBFI 050525Z 0506/0606 VRB03KT P6SM FEW250
     FM051800 32009KT P6SM FEW250
     FM060300 VRB03KT P6SM FEW250=



000
FTUS46 KSEW 050525
TAFPAE
TAF
KPAE 050525Z 0506/0606 02004KT P6SM FEW250
     FM051800 33009KT P6SM FEW250
     FM060300 VRB03KT P6SM FEW250=



000
FTUS46 KSEW 050525
TAFSEA
TAF
KSEA 050525Z 0506/0612 03007KT P6SM FEW250
     FM051800 34013KT P6SM FEW250
     FM060300 31006KT P6SM FEW250
     FM060600 VRB03KT P6SM FEW250=



000
FTUS46 KSEW 050525
TAFCLM
TAF
KCLM 050525Z 0506/0606 VRB03KT P6SM FEW250
     FM051600 07008KT P6SM FEW250
     FM052000 04008KT P6SM FEW250
     FM060000 35006KT P6SM FEW250=



000
FTUS46 KSEW 050525
TAFHQM
TAF
KHQM 050525Z 0506/0606 22005KT 5SM BR SCT007 SCT250
     FM050800 VRB03KT 3SM BR OVC004
      TEMPO 0510/0514 3/4SM BR
     FM051500 05008KT 6SM BCFG FEW006 FEW250
     FM051700 09008KT P6SM FEW250
     FM052100 23010KT P6SM FEW250=



000
FTUS46 KSEW 050525
TAFOLM
TAF
KOLM 050525Z 0506/0606 VRB03KT P6SM FEW250
     FM051800 02009KT P6SM FEW250
     FM060300 35005KT P6SM FEW250=



000
FTUS46 KSEW 050304 AAA
TAFSEA
TAF AMD
KSEA 050304Z 0503/0606 36010KT P6SM SKC
     FM050400 03007KT P6SM SKC
     FM051800 35010KT P6SM SKC=



000
FTUS46 KSEW 050304 AAA
TAFSEA
TAF AMD
KSEA 050304Z 0503/0606 36010KT P6SM SKC
     FM050400 03007KT P6SM SKC
     FM051800 35010KT P6SM SKC=



000
FTUS46 KSEW 050143 AAA
TAFHQM
TAF AMD
KHQM 050143Z 0502/0524 25009KT P6SM SKC
     FM050500 VRB03KT P6SM SKC
     FM051200 09008KT P6SM SKC=



000
FTUS46 KSEW 042325
TAFPAE
TAF
KPAE 042325Z 0500/0524 35008KT P6SM SKC
     FM050300 01005KT P6SM SKC
     FM051800 36009KT P6SM SKC=



000
FTUS46 KSEW 042325
TAFBFI
TAF
KBFI 042325Z 0500/0524 31009KT P6SM SKC
     FM050300 VRB03KT P6SM SKC
     FM051800 32008KT P6SM SKC=



000
FTUS46 KSEW 042325
TAFOLM
TAF
KOLM 042325Z 0500/0524 02006KT P6SM SKC
     FM050600 00000KT P6SM SKC
     FM051800 02007KT P6SM SKC=



000
FTUS46 KSEW 042325
TAFHQM
TAF
KHQM 042325Z 0500/0524 22012KT P6SM SKC
     FM050500 22006KT P6SM SKC
     FM051200 09008KT P6SM SKC=



000
FTUS46 KSEW 042325
TAFCLM
TAF
KCLM 042325Z 0500/0524 VRB04KT P6SM SKC
     FM051500 07006KT P6SM SKC=



000
FTUS46 KSEW 042325
TAFBLI
TAF
KBLI 042325Z 0500/0524 18006KT P6SM SKC
     FM050400 VRB03KT P6SM SKC
     FM051200 36005KT P6SM SKC
     FM051800 02010KT P6SM SKC=



000
FTUS46 KSEW 042325
TAFSEA
TAF
KSEA 042325Z 0500/0606 36010KT P6SM SKC
     FM050400 03007KT P6SM SKC
     FM051800 35010KT P6SM SKC=



000
FTUS46 KSEW 042325
TAFSEA
TAF
KSEA 042325Z 0500/0606 36010KT P6SM SKC
     FM050400 03007KT P6SM SKC
     FM051800 35010KT P6SM SKC=



000
FTUS46 KSEW 042325
TAFBLI
TAF
KBLI 042325Z 0500/0524 18006KT P6SM SKC
     FM050400 VRB03KT P6SM SKC
     FM051200 36005KT P6SM SKC
     FM051800 02010KT P6SM SKC=



000
FTUS46 KSEW 042325
TAFPAE
TAF
KPAE 042325Z 0500/0524 35008KT P6SM SKC
     FM050300 01005KT P6SM SKC
     FM051800 36009KT P6SM SKC=



000
FTUS46 KSEW 042325
TAFBFI
TAF
KBFI 042325Z 0500/0524 31009KT P6SM SKC
     FM050300 VRB03KT P6SM SKC
     FM051800 32008KT P6SM SKC=



000
FTUS46 KSEW 042325
TAFOLM
TAF
KOLM 042325Z 0500/0524 02006KT P6SM SKC
     FM050600 00000KT P6SM SKC
     FM051800 02007KT P6SM SKC=



000
FTUS46 KSEW 042325
TAFHQM
TAF
KHQM 042325Z 0500/0524 22012KT P6SM SKC
     FM050500 22006KT P6SM SKC
     FM051200 09008KT P6SM SKC=



000
FTUS46 KSEW 042325
TAFCLM
TAF
KCLM 042325Z 0500/0524 VRB04KT P6SM SKC
     FM051500 07006KT P6SM SKC=



000
FTUS46 KSEW 042102 AAA
TAFSEA
TAF AMD
KSEA 042102Z 0421/0524 36008KT P6SM SKC
     FM050400 03007KT P6SM SKC=



000
FTUS46 KSEW 041720
TAFCLM
TAF
KCLM 041720Z 0418/0518 VRB04KT P6SM SKC
     FM050300 29006KT P6SM SKC=



000
FTUS46 KSEW 041720
TAFPAE
TAF
KPAE 041720Z 0418/0518 34008KT P6SM SKC
     FM050300 VRB03KT P6SM SKC=



000
FTUS46 KSEW 041720
TAFCLM
TAF
KCLM 041720Z 0418/0518 VRB04KT P6SM SKC
     FM050300 29006KT P6SM SKC=



000
FTUS46 KSEW 041720
TAFBLI
TAF
KBLI 041720Z 0418/0518 20006KT P6SM SKC
     FM042100 28006KT P6SM SKC
     FM050200 VRB03KT P6SM SKC=



000
FTUS46 KSEW 041720
TAFHQM
TAF
KHQM 041720Z 0418/0518 VRB04KT 5SM BR SKC
     FM042000 24012KT P6SM SKC
     FM050300 26006KT P6SM SKC
     FM051200 09006KT P6SM SKC=



000
FTUS46 KSEW 041720
TAFOLM
TAF
KOLM 041720Z 0418/0518 02006KT P6SM SKC
     FM050600 00000KT P6SM SKC=



000
FTUS46 KSEW 041720
TAFBFI
TAF
KBFI 041720Z 0418/0518 30004KT P6SM SKC
     FM041900 31007KT P6SM SKC
     FM050300 VRB03KT P6SM SKC=



000
FTUS46 KSEW 041720
TAFSEA
TAF
KSEA 041720Z 0418/0524 28006KT P6SM SKC
     FM041900 32008KT P6SM SKC
     FM050400 03007KT P6SM SKC=



000
FTUS46 KSEW 041720
TAFBLI
TAF
KBLI 041720Z 0418/0518 20006KT P6SM SKC
     FM042100 28006KT P6SM SKC
     FM050200 VRB03KT P6SM SKC=



000
FTUS46 KSEW 041720
TAFHQM
TAF
KHQM 041720Z 0418/0518 VRB04KT 5SM BR SKC
     FM042000 24012KT P6SM SKC
     FM050300 26006KT P6SM SKC
     FM051200 09006KT P6SM SKC=



000
FTUS46 KSEW 041720
TAFBFI
TAF
KBFI 041720Z 0418/0518 30004KT P6SM SKC
     FM041900 31007KT P6SM SKC
     FM050300 VRB03KT P6SM SKC=



000
FTUS46 KSEW 041720
TAFSEA
TAF
KSEA 041720Z 0418/0524 28006KT P6SM SKC
     FM041900 32008KT P6SM SKC
     FM050400 03007KT P6SM SKC=



000
FTUS46 KSEW 041720
TAFPAE
TAF
KPAE 041720Z 0418/0518 34008KT P6SM SKC
     FM050300 VRB03KT P6SM SKC=



000
FTUS46 KSEW 041720
TAFOLM
TAF
KOLM 041720Z 0418/0518 02006KT P6SM SKC
     FM050600 00000KT P6SM SKC=



000
FTUS46 KSEW 041505 AAA
TAFSEA
TAF AMD
KSEA 041505Z 0415/0518 20004KT P6SM SKC
     FM041700 28006KT P6SM SKC
     FM041900 32008KT P6SM SKC
     FM050400 03007KT P6SM SKC=



000
FTUS46 KSEW 041339 AAA
TAFHQM
TAF AMD
KHQM 041339Z 0414/0512 VRB04KT 5SM BR OVC004
     FM041800 19005KT P6SM BKN011
     FM042000 24012KT P6SM SKC
     FM050300 26007KT P6SM SKC=



000
FTUS46 KSEW 041339 AAA
TAFHQM
TAF AMD
KHQM 041339Z 0414/0512 VRB04KT 5SM BR OVC004
     FM041800 19005KT P6SM BKN011
     FM042000 24012KT P6SM SKC
     FM050300 26007KT P6SM SKC=



000
FTUS46 KSEW 041130
TAFBLI
TAF
KBLI 041130Z 0412/0512 35006KT P6SM SKC
     FM042100 28006KT P6SM SKC
     FM050200 VRB03KT P6SM SKC=



000
FTUS46 KSEW 041130
TAFBFI
TAF
KBFI 041130Z 0412/0512 VRB03KT P6SM SKC
     FM041900 31007KT P6SM SKC
     FM050300 VRB03KT P6SM SKC=



000
FTUS46 KSEW 041130
TAFSEA
TAF
KSEA 041130Z 0412/0518 20004KT P6SM SKC
     FM041700 28006KT P6SM SKC
     FM041900 32008KT P6SM SKC
     FM050400 03007KT P6SM SKC=



000
FTUS46 KSEW 041130
TAFCLM
TAF
KCLM 041130Z 0412/0512 35004KT P6SM VCFG SKC
     FM041800 05006KT P6SM SKC
     FM050300 29006KT P6SM SKC=



000
FTUS46 KSEW 041130
TAFHQM
TAF
KHQM 041130Z 0412/0512 VRB03KT 5SM BR OVC008
     FM041800 19005KT P6SM BKN011
     FM042000 24012KT P6SM SKC
     FM050300 26007KT P6SM SKC=



000
FTUS46 KSEW 041130
TAFOLM
TAF
KOLM 041130Z 0412/0512 VRB03KT P6SM BCFG SKC
     FM041600 VRB03KT P6SM SKC
     FM041900 02006KT P6SM SKC=



000
FTUS46 KSEW 041130
TAFBFI
TAF
KBFI 041130Z 0412/0512 VRB03KT P6SM SKC
     FM041900 31007KT P6SM SKC
     FM050300 VRB03KT P6SM SKC=



000
FTUS46 KSEW 041130
TAFPAE
TAF
KPAE 041130Z 0412/0512 VRB03KT P6SM SKC
     FM041900 34006KT P6SM SKC
     FM050300 VRB03KT P6SM SKC=



000
FTUS46 KSEW 041130
TAFPAE
TAF
KPAE 041130Z 0412/0512 VRB03KT P6SM SKC
     FM041900 34006KT P6SM SKC
     FM050300 VRB03KT P6SM SKC=



000
FTUS46 KSEW 041130
TAFBLI
TAF
KBLI 041130Z 0412/0512 35006KT P6SM SKC
     FM042100 28006KT P6SM SKC
     FM050200 VRB03KT P6SM SKC=



000
FTUS46 KSEW 041130
TAFHQM
TAF
KHQM 041130Z 0412/0512 VRB03KT 5SM BR OVC008
     FM041800 19005KT P6SM BKN011
     FM042000 24012KT P6SM SKC
     FM050300 26007KT P6SM SKC=



000
FTUS46 KSEW 041130
TAFCLM
TAF
KCLM 041130Z 0412/0512 35004KT P6SM VCFG SKC
     FM041800 05006KT P6SM SKC
     FM050300 29006KT P6SM SKC=



000
FTUS46 KSEW 041130
TAFOLM
TAF
KOLM 041130Z 0412/0512 VRB03KT P6SM BCFG SKC
     FM041600 VRB03KT P6SM SKC
     FM041900 02006KT P6SM SKC=



000
FTUS46 KSEW 041130
TAFSEA
TAF
KSEA 041130Z 0412/0518 20004KT P6SM SKC
     FM041700 28006KT P6SM SKC
     FM041900 32008KT P6SM SKC
     FM050400 03007KT P6SM SKC=



000
FTUS46 KSEW 040900 AAA
TAFSEA
TAF AMD
KSEA 040900Z 0409/0512 VRB03KT P6SM SKC
     FM041800 33008KT P6SM SKC=



000
FTUS46 KSEW 040900 AAA
TAFSEA
TAF AMD
KSEA 040900Z 0409/0512 VRB03KT P6SM SKC
     FM041800 33008KT P6SM SKC=



000
FTUS46 KSEW 040629 AAA
TAFHQM
TAF AMD
KHQM 040629Z 0406/0506 26005KT 6SM BR BKN011
     FM040900 VRB03KT 3SM BR OVC008
     FM041200 VRB03KT 1SM BR OVC005
     FM041600 VRB03KT 5SM BR SCT007
     FM041800 19005KT P6SM SKC
     FM042000 24012KT P6SM SKC=



000
FTUS46 KSEW 040539
TAFHQM
TAF
KHQM 040539Z 0406/0506 26007KT 6SM BR FEW015
     FM040900 VRB03KT 3SM BR BKN008
     FM041200 VRB03KT 1SM BR OVC005
     FM041600 VRB03KT 5SM BR SCT007
     FM041800 19005KT P6SM SKC
     FM042000 24012KT P6SM SKC=



000
FTUS46 KSEW 040539
TAFBFI
TAF
KBFI 040539Z 0406/0506 VRB03KT P6SM SKC
     FM041800 32007KT P6SM SKC=



000
FTUS46 KSEW 040539
TAFPAE
TAF
KPAE 040539Z 0406/0506 VRB03KT P6SM SKC
     FM041900 34006KT P6SM SKC=



000
FTUS46 KSEW 040539
TAFBLI
TAF
KBLI 040539Z 0406/0506 VRB03KT P6SM SKC
     FM042100 28006KT P6SM SKC=



000
FTUS46 KSEW 040539
TAFSEA
TAF
KSEA 040539Z 0406/0512 35006KT P6SM SKC
     FM040900 VRB03KT P6SM SKC
     FM041800 33008KT P6SM SKC=



000
FTUS46 KSEW 040539
TAFOLM
TAF
KOLM 040539Z 0406/0506 VRB03KT P6SM SKC
     FM041800 02007KT P6SM SKC=



000
FTUS46 KSEW 040539
TAFCLM
TAF
KCLM 040539Z 0406/0506 VRB03KT P6SM SKC
     FM041800 04006KT P6SM SKC=



000
FTUS46 KSEW 040302 AAA
TAFSEA
TAF AMD
KSEA 040302Z 0403/0506 35007KT P6SM SKC
     FM040500 02004KT P6SM SKC
     FM041800 32008KT P6SM SKC=



000
FTUS46 KSEW 032325
TAFPAE
TAF
KPAE 032325Z 0400/0424 35004KT P6SM SKC=



000
FTUS46 KSEW 032325
TAFBLI
TAF
KBLI 032325Z 0400/0424 19006KT P6SM SKC=



000
FTUS46 KSEW 032325
TAFBFI
TAF
KBFI 032325Z 0400/0424 30006KT P6SM SKC
     FM040500 VRB02KT P6SM SKC
     FM041800 30007KT P6SM SKC=



000
FTUS46 KSEW 032325
TAFCLM
TAF
KCLM 032325Z 0400/0424 29007KT P6SM SKC
     FM040600 VRB03KT P6SM SKC=



000
FTUS46 KSEW 032325
TAFHQM
TAF
KHQM 032325Z 0400/0424 24012KT 5SM HZ SKC
     FM040700 24007KT 2SM BR OVC005
     FM042000 22010KT P6SM SKC=



000
FTUS46 KSEW 032325
TAFSEA
TAF
KSEA 032325Z 0400/0506 30008KT P6SM SKC
     FM040500 02004KT P6SM SKC
     FM041800 32008KT P6SM SKC=



000
FTUS46 KSEW 032325
TAFOLM
TAF
KOLM 032325Z 0400/0424 01008KT P6SM SKC
     FM040500 VRB03KT P6SM SKC
     FM041800 02007KT P6SM SKC=



000
FTUS46 KSEW 032105 AAA
TAFSEA
TAF AMD
KSEA 032105Z 0321/0424 30009KT P6SM SKC
     FM040500 VRB04KT P6SM SKC=



000
FTUS46 KSEW 031722
TAFCLM
TAF
KCLM 031722Z 0318/0418 00000KT P6SM SKC
     FM040100 29007KT P6SM SKC
     FM040600 VRB03KT P6SM SKC=



000
FTUS46 KSEW 031722
TAFSEA
TAF
KSEA 031722Z 0318/0424 30004KT P6SM SKC
     FM032000 30008KT P6SM SKC
     FM040500 VRB04KT P6SM SKC=



000
FTUS46 KSEW 031722
TAFHQM
TAF
KHQM 031722Z 0318/0418 22004KT 4SM BR OVC005
     FM031900 23006KT 6SM HZ SCT008
     FM032000 24010KT P6SM SKC
     FM040700 24007KT 2SM BR OVC005=



000
FTUS46 KSEW 031722
TAFOLM
TAF
KOLM 031722Z 0318/0418 VRB04KT P6SM SKC
     FM032100 31006KT P6SM SKC
     FM040600 17003KT P6SM SKC=



000
FTUS46 KSEW 031722
TAFBFI
TAF
KBFI 031722Z 0318/0418 30006KT P6SM SKC
     FM040500 VRB02KT P6SM SKC=



000
FTUS46 KSEW 031722
TAFPAE
TAF
KPAE 031722Z 0318/0418 35004KT P6SM SKC=



000
FTUS46 KSEW 031722
TAFBLI
TAF
KBLI 031722Z 0318/0418 19006KT P6SM SKC=



000
FTUS46 KSEW 031501 AAA
TAFSEA
TAF AMD
KSEA 031501Z 0315/0418 30004KT P6SM SKC
     FM032000 30008KT P6SM SKC
     FM040500 VRB04KT P6SM SKC=



000
FTUS46 KSEW 031137
TAFCLM
TAF
KCLM 031137Z 0312/0412 00000KT P6SM SKC
     FM040100 29007KT P6SM SKC
     FM040600 VRB03KT P6SM SKC=



000
FTUS46 KSEW 031137
TAFSEA
TAF
KSEA 031137Z 0312/0418 VRB03KT P6SM SKC
     FM032000 30008KT P6SM SKC
     FM040500 VRB04KT P6SM SKC=



000
FTUS46 KSEW 031137
TAFOLM
TAF
KOLM 031137Z 0312/0412 00000KT P6SM SKC
     FM032100 31006KT P6SM SKC
     FM040600 17003KT P6SM SKC=



000
FTUS46 KSEW 031137
TAFHQM
TAF
KHQM 031137Z 0312/0412 28003KT 5SM BR OVC004
      TEMPO 0313/0316 1SM BR OVC003
     FM031700 23006KT 5SM BR SCT006
     FM031800 23006KT 6SM HZ SKC
     FM040700 24007KT 2SM BR OVC005=



000
FTUS46 KSEW 031137
TAFBFI
TAF
KBFI 031137Z 0312/0412 00000KT P6SM SKC
     FM032000 30006KT P6SM SKC
     FM040500 VRB02KT P6SM SKC=



000
FTUS46 KSEW 031137
TAFPAE
TAF
KPAE 031137Z 0312/0412 35004KT P6SM SKC=



000
FTUS46 KSEW 031137
TAFBLI
TAF
KBLI 031137Z 0312/0412 19006KT P6SM SKC=



000
FTUS46 KSEW 031137
TAFCLM
TAF
KCLM 031137Z 0312/0412 00000KT P6SM SKC
     FM040100 29007KT P6SM SKC
     FM040600 VRB03KT P6SM SKC=



000
FTUS46 KSEW 031137
TAFOLM
TAF
KOLM 031137Z 0312/0412 00000KT P6SM SKC
     FM032100 31006KT P6SM SKC
     FM040600 17003KT P6SM SKC=



000
FTUS46 KSEW 031137
TAFPAE
TAF
KPAE 031137Z 0312/0412 35004KT P6SM SKC=



000
FTUS46 KSEW 031137
TAFBLI
TAF
KBLI 031137Z 0312/0412 19006KT P6SM SKC=



000
FTUS46 KSEW 031137
TAFBFI
TAF
KBFI 031137Z 0312/0412 00000KT P6SM SKC
     FM032000 30006KT P6SM SKC
     FM040500 VRB02KT P6SM SKC=



000
FTUS46 KSEW 031137
TAFHQM
TAF
KHQM 031137Z 0312/0412 28003KT 5SM BR OVC004
      TEMPO 0313/0316 1SM BR OVC003
     FM031700 23006KT 5SM BR SCT006
     FM031800 23006KT 6SM HZ SKC
     FM040700 24007KT 2SM BR OVC005=



000
FTUS46 KSEW 031137
TAFSEA
TAF
KSEA 031137Z 0312/0418 VRB03KT P6SM SKC
     FM032000 30008KT P6SM SKC
     FM040500 VRB04KT P6SM SKC=



000
FTUS46 KSEW 030900 AAA
TAFHQM
TAF AMD
KHQM 030900Z 0309/0406 28004KT 4SM BR OVC003
      TEMPO 0312/0316 1SM BR OVC003
     FM031800 23006KT 6SM HZ SKC=



000
FTUS46 KSEW 030520
TAFSEA
TAF
KSEA 030520Z 0306/0412 01006KT P6SM SCT250
     FM032000 30010KT P6SM SKC
     FM040500 02005KT P6SM SKC=



000
FTUS46 KSEW 030520
TAFOLM
TAF
KOLM 030520Z 0306/0406 VRB04KT P6SM SKC=



000
FTUS46 KSEW 030520
TAFHQM
TAF
KHQM 030520Z 0306/0406 25006KT 6SM BR SKC
     FM031100 25005KT 5SM BR SCT006
      TEMPO 0312/0316 2SM BR OVC007
     FM031800 23006KT 6SM HZ SKC=



000
FTUS46 KSEW 030520
TAFPAE
TAF
KPAE 030520Z 0306/0406 34005KT P6SM SKC=



000
FTUS46 KSEW 030520
TAFBLI
TAF
KBLI 030520Z 0306/0406 18004KT P6SM SKC
     FM032000 26007KT P6SM SKC
     FM040300 18003KT P6SM SKC=



000
FTUS46 KSEW 030520
TAFBFI
TAF
KBFI 030520Z 0306/0406 VRB03KT P6SM SKC
     FM032000 31006KT P6SM SKC=



000
FTUS46 KSEW 030520
TAFHQM
TAF
KHQM 030520Z 0306/0406 25006KT 6SM BR SKC
     FM031100 25005KT 5SM BR SCT006
      TEMPO 0312/0316 2SM BR OVC007
     FM031800 23006KT 6SM HZ SKC=



000
FTUS46 KSEW 030520
TAFCLM
TAF
KCLM 030520Z 0306/0406 VRB03KT P6SM SKC
     FM040300 29007KT P6SM SKC=



000
FTUS46 KSEW 030520
TAFPAE
TAF
KPAE 030520Z 0306/0406 34005KT P6SM SKC=



000
FTUS46 KSEW 030520
TAFBLI
TAF
KBLI 030520Z 0306/0406 18004KT P6SM SKC
     FM032000 26007KT P6SM SKC
     FM040300 18003KT P6SM SKC=



000
FTUS46 KSEW 030520
TAFBFI
TAF
KBFI 030520Z 0306/0406 VRB03KT P6SM SKC
     FM032000 31006KT P6SM SKC=



000
FTUS46 KSEW 022320
TAFOLM
TAF
KOLM 022320Z 0300/0324 02006KT P6SM SKC
     FM030400 VRB03KT P6SM SKC
     FM032000 29006KT P6SM SKC=



000
FTUS46 KSEW 022320
TAFCLM
TAF
KCLM 022320Z 0300/0324 06004KT P6SM SKC
     FM030200 28006KT P6SM SKC
     FM031600 34006KT P6SM SKC=



000
FTUS46 KSEW 022320
TAFPAE
TAF
KPAE 022320Z 0300/0324 36006KT P6SM SKC=



000
FTUS46 KSEW 022320
TAFSEA
TAF
KSEA 022320Z 0300/0406 36008KT P6SM SKC
     FM030400 03005KT P6SM SKC
     FM032000 29010KT P6SM SKC
     FM040000 34008KT P6SM SKC=



000
FTUS46 KSEW 022320
TAFBLI
TAF
KBLI 022320Z 0300/0324 26006KT P6SM SKC
     FM030200 19005KT P6SM SKC
     FM032000 22007KT P6SM SKC=



000
FTUS46 KSEW 022320
TAFHQM
TAF
KHQM 022320Z 0300/0324 25012KT P6SM SKC
     FM030600 24007KT 4SM BR OVC008
     FM031700 21007KT 6SM BR BKN011
     FM031900 23013KT P6SM SKC=



000
FTUS46 KSEW 022320
TAFBFI
TAF
KBFI 022320Z 0300/0324 31006KT P6SM SKC
     FM030500 00000KT P6SM SKC
     FM032000 31006KT P6SM SKC=



000
FTUS46 KSEW 021720
TAFBLI
TAF
KBLI 021720Z 0218/0318 VRB04KT P6SM SKC
     FM022000 26007KT P6SM SKC
     FM030300 19005KT P6SM SKC=



000
FTUS46 KSEW 021720
TAFHQM
TAF
KHQM 021720Z 0218/0318 20006KT 5SM HZ SKC
     FM022000 25012KT P6SM SKC
     FM030600 24007KT 4SM BR OVC008
     FM031700 21007KT P6SM BKN011=



000
FTUS46 KSEW 021720
TAFCLM
TAF
KCLM 021720Z 0218/0318 VRB04KT P6SM SKC
     FM022100 06004KT P6SM SKC
     FM030100 28008KT P6SM SKC
     FM031600 34006KT P6SM SKC=



000
FTUS46 KSEW 021720
TAFPAE
TAF
KPAE 021720Z 0218/0318 36007KT P6SM SKC=



000
FTUS46 KSEW 021720
TAFBLI
TAF
KBLI 021720Z 0218/0318 VRB04KT P6SM SKC
     FM022000 26007KT P6SM SKC
     FM030300 19005KT P6SM SKC=



000
FTUS46 KSEW 021720
TAFSEA
TAF
KSEA 021720Z 0218/0324 34004KT P6SM SKC
     FM021900 34008KT P6SM SKC
     FM030400 03005KT P6SM SKC
     FM032000 29008KT P6SM SKC=



000
FTUS46 KSEW 021720
TAFBFI
TAF
KBFI 021720Z 0218/0318 32004KT P6SM SKC
     FM022100 31006KT P6SM SKC
     FM030600 00000KT P6SM SKC=



000
FTUS46 KSEW 021720
TAFOLM
TAF
KOLM 021720Z 0218/0318 01004KT P6SM SKC
     FM022000 03006KT P6SM SKC
     FM030500 VRB03KT P6SM SKC=



000
FTUS46 KSEW 021720
TAFHQM
TAF
KHQM 021720Z 0218/0318 20006KT 5SM HZ SKC
     FM022000 25012KT P6SM SKC
     FM030600 24007KT 4SM BR OVC008
     FM031700 21007KT P6SM BKN011=



000
FTUS46 KSEW 021720
TAFPAE
TAF
KPAE 021720Z 0218/0318 36007KT P6SM SKC=



000
FTUS46 KSEW 021720
TAFCLM
TAF
KCLM 021720Z 0218/0318 VRB04KT P6SM SKC
     FM022100 06004KT P6SM SKC
     FM030100 28008KT P6SM SKC
     FM031600 34006KT P6SM SKC=



000
FTUS46 KSEW 021720
TAFSEA
TAF
KSEA 021720Z 0218/0324 34004KT P6SM SKC
     FM021900 34008KT P6SM SKC
     FM030400 03005KT P6SM SKC
     FM032000 29008KT P6SM SKC=



000
FTUS46 KSEW 021720
TAFBFI
TAF
KBFI 021720Z 0218/0318 32004KT P6SM SKC
     FM022100 31006KT P6SM SKC
     FM030600 00000KT P6SM SKC=



000
FTUS46 KSEW 021720
TAFOLM
TAF
KOLM 021720Z 0218/0318 01004KT P6SM SKC
     FM022000 03006KT P6SM SKC
     FM030500 VRB03KT P6SM SKC=



000
FTUS46 KSEW 021127
TAFBFI
TAF
KBFI 021127Z 0212/0312 35003KT P6SM SKC
     FM022100 31006KT P6SM SKC
     FM030600 00000KT P6SM SKC=



000
FTUS46 KSEW 021127
TAFSEA
TAF
KSEA 021127Z 0212/0318 02005KT P6SM SKC
     FM021800 33008KT P6SM SKC
     FM030400 02006KT P6SM SKC=



000
FTUS46 KSEW 021127
TAFPAE
TAF
KPAE 021127Z 0212/0312 VRB03KT P6SM SKC
     FM021800 34006KT P6SM SKC=



000
FTUS46 KSEW 021127
TAFOLM
TAF
KOLM 021127Z 0212/0312 VRB03KT P6SM SKC
     FM021900 02005KT P6SM SKC
     FM030500 00000KT P6SM SKC=



000
FTUS46 KSEW 021127
TAFBLI
TAF
KBLI 021127Z 0212/0312 16004KT P6SM SKC
     FM022000 28008KT P6SM SKC
     FM030300 19004KT P6SM SKC=



000
FTUS46 KSEW 021127
TAFCLM
TAF
KCLM 021127Z 0212/0312 00000KT P6SM SKC
     FM022100 04004KT P6SM SKC
     FM030100 28010KT P6SM SKC=



000
FTUS46 KSEW 021127
TAFHQM
TAF
KHQM 021127Z 0212/0312 00000KT 5SM BR SCT004
      TEMPO 0212/0216 1SM BR OVC003
     FM021700 27008KT 6SM HZ SKC
     FM022000 24012KT P6SM SKC
     FM030500 24007KT P6SM SKC=



000
FTUS46 KSEW 021127
TAFHQM
TAF
KHQM 021127Z 0212/0312 00000KT 5SM BR SCT004
      TEMPO 0212/0216 1SM BR OVC003
     FM021700 27008KT 6SM HZ SKC
     FM022000 24012KT P6SM SKC
     FM030500 24007KT P6SM SKC=



000
FTUS46 KSEW 021127
TAFCLM
TAF
KCLM 021127Z 0212/0312 00000KT P6SM SKC
     FM022100 04004KT P6SM SKC
     FM030100 28010KT P6SM SKC=



000
FTUS46 KSEW 021127
TAFOLM
TAF
KOLM 021127Z 0212/0312 VRB03KT P6SM SKC
     FM021900 02005KT P6SM SKC
     FM030500 00000KT P6SM SKC=



000
FTUS46 KSEW 021127
TAFBLI
TAF
KBLI 021127Z 0212/0312 16004KT P6SM SKC
     FM022000 28008KT P6SM SKC
     FM030300 19004KT P6SM SKC=



000
FTUS46 KSEW 021127
TAFSEA
TAF
KSEA 021127Z 0212/0318 02005KT P6SM SKC
     FM021800 33008KT P6SM SKC
     FM030400 02006KT P6SM SKC=



000
FTUS46 KSEW 021127
TAFBFI
TAF
KBFI 021127Z 0212/0312 35003KT P6SM SKC
     FM022100 31006KT P6SM SKC
     FM030600 00000KT P6SM SKC=



000
FTUS46 KSEW 021127
TAFPAE
TAF
KPAE 021127Z 0212/0312 VRB03KT P6SM SKC
     FM021800 34006KT P6SM SKC=



    US Dept of Commerce
    National Oceanic and Atmospheric Administration
    National Weather Service
    1325 East West Highway
    Silver Spring, MD 20910
    Page Author: NWS Internet Services Team
Disclaimer
Information Quality
Credits
Glossary
Privacy Policy
Freedom of Information Act (FOIA)
About Us
Career Opportunities